CDT,Max TemperatureF,Mean TemperatureF,Min TemperatureF,Max Dew PointF,MeanDew PointF,Min DewpointF,Max Humidity, Mean Humidity, Min Humidity, Max Sea Level PressureIn, Mean Sea Level PressureIn, Min Sea Level PressureIn, Max VisibilityMiles, Mean VisibilityMiles, Min VisibilityMiles, Max Wind SpeedMPH, Mean Wind SpeedMPH, Max Gust SpeedMPH,PrecipitationIn, CloudCover, Events, WindDirDegrees
2013-4-1,35,27,19,19,15,12,81,64,47,30.31,30.24,30.11,10,10,10,22,15,25,0.00,1,,326
2013-4-2,39,29,18,21,18,15,84,64,44,30.38,30.34,30.30,10,10,10,20,9,25,0.00,1,,320
2013-4-3,46,33,20,27,21,17,84,63,41,30.44,30.35,30.22,10,10,10,21,10,24,0.00,0,,169
2013-4-4,55,43,31,34,28,22,78,57,35,30.19,30.12,30.06,10,10,10,20,13,25,T,1,,284
2013-4-5,49,38,27,31,27,23,85,65,45,30.23,30.11,29.88,10,10,10,23,13,29,0.00,3,,100
2013-4-6,61,50,38,47,38,28,86,70,53,29.86,29.66,29.54,10,8,2,26,17,36,0.11,5,Rain,230
2013-4-7,55,44,33,42,36,30,96,80,63,29.97,29.86,29.71,10,8,4,20,9,22,T,6,,73
2013-4-8,63,53,42,52,46,39,100,83,65,29.93,29.74,29.63,9,5,0,23,10,26,0.42,5,Fog-Rain,73
2013-4-9,42,39,36,39,36,34,92,89,85,30.07,29.92,29.79,10,5,2,36,20,43,2.16,8,Rain-Thunderstorm,35
2013-4-10,36,34,32,34,31,28,96,89,82,30.07,29.95,29.80,10,6,1,33,18,40,0.19,8,Rain-Thunderstorm,50
2013-4-11,40,36,32,36,33,30,96,91,85,29.78,29.63,29.55,10,3,1,17,11,23,0.75,8,Rain-Snow,55
2013-4-12,34,32,29,30,26,23,92,81,69,29.91,29.76,29.60,10,10,4,23,15,28,T,8,,311
2013-4-13,42,35,28,31,25,21,78,66,54,29.98,29.93,29.89,10,10,10,21,11,25,0.00,7,,284
2013-4-14,53,43,33,50,39,27,92,84,75,29.89,29.58,29.42,10,6,1,33,17,45,1.60,8,Rain-Thunderstorm,125
2013-4-15,45,39,32,32,28,24,78,66,53,30.05,29.86,29.64,10,10,10,29,17,36,0.02,4,,266
2013-4-16,50,39,28,32,28,25,78,60,42,30.30,30.21,30.06,10,10,10,20,11,23,0.00,2,,345
2013-4-17,39,37,35,36,34,29,92,81,70,30.27,30.00,29.75,10,6,2,38,15,45,0.88,8,Rain,52
2013-4-18,37,34,31,36,31,28,92,87,82,29.77,29.60,29.51,10,4,1,31,19,38,0.33,8,Rain-Snow,342
2013-4-19,35,32,28,27,25,23,85,75,64,30.05,29.76,29.58,10,10,4,31,22,37,T,7,Snow,304
2013-4-20,43,34,24,25,19,12,81,55,29,30.30,30.23,30.07,10,10,10,15,7,18,0.00,2,,18
2013-4-21,64,49,34,47,38,25,85,67,48,30.31,30.17,30.04,10,8,2,29,17,36,0.27,7,Rain-Snow,174
2013-4-22,50,42,33,48,39,30,93,89,85,30.16,30.07,29.96,10,5,1,25,12,30,0.50,8,Rain-Snow,14
2013-4-23,41,34,27,30,26,22,85,69,52,30.17,30.12,30.07,10,10,10,28,18,33,T,5,,333
2013-4-24,53,39,24,36,27,20,89,60,30,30.13,30.07,29.97,10,10,4,40,14,51,0.03,2,Rain,266
2013-4-25,56,42,27,32,24,18,78,55,31,30.27,30.18,30.08,10,10,10,23,13,31,0.00,0,,252
2013-4-26,73,57,40,46,39,31,77,52,27,30.17,30.09,30.05,10,10,10,29,14,37,0.00,1,,199
2013-4-27,70,56,42,48,44,41,96,67,37,30.17,30.08,29.98,10,9,3,17,10,25,0.00,1,,185
2013-4-28,77,61,45,48,45,41,86,59,31,29.96,29.83,29.70,10,10,9,22,12,29,0.00,0,,203
2013-4-29,73,63,52,55,53,47,93,71,49,29.82,29.71,29.54,10,10,4,20,9,25,0.22,3,Rain-Thunderstorm,105
2013-4-30,74,62,50,57,50,42,90,63,35,29.93,29.70,29.49,10,9,2,25,14,33,0.78,3,Rain-Thunderstorm,319